ADDS METAR Data

Data at: 1842 UTC 13 Dec 2017

METAR for:LHUD (Szeged Arpt, --, HU)
Text:LHUD 131815Z 23008KT 9999 SCT040 BKN083 03/02 Q1017
Temperature: 3.0°C ( 37°F)
Dewpoint: 2.0°C ( 36°F) [RH = 93%]
Pressure (altimeter):30.03 inches Hg (1017.0 mb)
Winds:from the SW (230 degrees) at 9 MPH (8 knots; 4.1 m/s)
Visibility:6 or more sm (10+ km)
Ceiling:8300 feet AGL
Clouds: scattered clouds at 4000 feet AGL, broken clouds at 8300 feet AGL

TAF for:LHUD (Szeged Arpt, --, HU)
Text:No data found